Aeroporto :
LOGIN :

Iscrizione | Disclaimer

   EN    FR    IT 

 










Sommario :    VFR   VFR Marginale   IFR   IFR Intensivo   IFR Molto Intensivo
Visibilità : 
Base nubi : 
>= 8 km
>= 3000ft
5 / 8 km
1000 / 3000 ft
1500m / 5 km
500 / 1000 ft
800 / 1500m
200 / 500 ft
< 800m
< 200 ft
Simboli :   Temporali  Nebbia  Neve Forte  Precipitazioni Forti  Vento > 20 kt
SIGMETs :   Varie  Temporali  Ghiacco  Turbolenza  Onda orograficha  Ceneri Vulcaniche






- Altitudine del aeroporto : 502 ft
- Codice IATA : ORK


EICK - Cork

ULTIMO METAR :
  • 180430Z 23014KT 9999 FEW018CB SCT080 BKN130 05/04 Q1016 NOSIG

METARs OBSOLETI :
  • 180400Z 23014KT 9999 SCT018CB BKN070 05/03 Q1016 NOSIG
  • 180330Z 24010KT 9999 -SHRA FEW018CB BKN024 04/02 Q1017 NOSIG
  • 180300Z 23010KT 9999 -SHRA FEW018CB BKN024 04/02 Q1017 NOSIG
  • 180230Z 23011KT 9999 FEW018 SCT030 03/02 Q1017 NOSIG
  • 180200Z 23011KT 9999 FEW018 SCT026 03/01 Q1017 NOSIG

TAF TAF EICK
Valido dal 18 a 00 ore il 19 a 00 ore UTC


172300Z 1800/1824 25012KT 9999 FEW020 SCT030
TEMPO 1800/1806 27018G30KT
TEMPO 1800/1819 -SHRAGS SCT012 SCT018CB
PROB30
TEMPO 1806/1815 4000 SHRAGS
BECMG 1806/1808 23015KT
TEMPO 1806/1810 23020G32KT
BECMG 1810/1812 26017KT
TEMPO 1811/1816 27023G37KT
BECMG 1819/1821 27010KT



MetMap, La meteo Aeronautica in un colpo d'occhio ! - Copyright ORBIFLY Dicembre 2007 - Disclaimer

ORBIFLY MET'MAP TEAM :

Programmazione e sviluppo : Alexandra Zaïnal
Concezione : Baudouin d'Aumeries
Aiuto per la programmazione : Marc-Olivier Méhu
Supporto tecnico e logistico : Manuel Goepfert
Aiuto per la traduzione : Arnaldo La Scala

Contatto : metmap@orbifly.com




FONTI E CREDITI :

   NOAA